<?xml version="1.0" encoding="UTF-8" standalone="no" ?>
<gpx xmlns="http://www.topografix.com/GPX/1/1" xmlns:xsi="http://www.w3.org/2001/XMLSchema-instance" xsi:schemaLocation="http://www.topografix.com/GPX/1/1 http://www.topografix.com/GPX/1/1/gpx.xsd" version="1.1" creator="VisuGPX - https://www.visugpx.com">
  <metadata>
    <name>Gorges de la Siagne</name>
    <desc><![CDATA[Randonnée remarquable par ses paysages et ses sites : gorges de la Siagne, Chapelle Saint-Saturnin, Pont des Tuves, village de Saint-Cézaire.]]></desc>
  </metadata>
  <trk>
    <name><![CDATA[7166584-Gorges de la Siagne]]></name>
    <trkseg>
      <trkpt lat="43.64836" lon="6.79392">
        <ele>485</ele>
        <time>2017-03-19T07:34:07.000Z</time>
      </trkpt>
      <trkpt lat="43.64788" lon="6.79439">
        <ele>487</ele>
        <time>2017-03-19T07:35:16.260Z</time>
      </trkpt>
      <trkpt lat="43.64774" lon="6.79475">
        <ele>487</ele>
        <time>2017-03-19T07:35:40.235Z</time>
      </trkpt>
      <trkpt lat="43.64798" lon="6.79444">
        <ele>487</ele>
        <time>2017-03-19T07:36:06.867Z</time>
      </trkpt>
      <trkpt lat="43.64854" lon="6.79384">
        <ele>484</ele>
        <time>2017-03-19T07:36:22.378Z</time>
      </trkpt>
      <trkpt lat="43.64885" lon="6.79344">
        <ele>480</ele>
        <time>2017-03-19T07:36:30.644Z</time>
      </trkpt>
      <trkpt lat="43.64836" lon="6.79307">
        <ele>464</ele>
        <time>2017-03-19T07:36:41.526Z</time>
      </trkpt>
      <trkpt lat="43.64791" lon="6.7932">
        <ele>460</ele>
        <time>2017-03-19T07:36:50.486Z</time>
      </trkpt>
      <trkpt lat="43.64803" lon="6.79302">
        <ele>455</ele>
        <time>2017-03-19T07:36:53.937Z</time>
      </trkpt>
      <trkpt lat="43.64789" lon="6.79296">
        <ele>449</ele>
        <time>2017-03-19T07:36:56.794Z</time>
      </trkpt>
      <trkpt lat="43.64815" lon="6.79271">
        <ele>443</ele>
        <time>2017-03-19T07:37:02.967Z</time>
      </trkpt>
      <trkpt lat="43.64756" lon="6.79264">
        <ele>428</ele>
        <time>2017-03-19T07:37:14.508Z</time>
      </trkpt>
      <trkpt lat="43.64733" lon="6.79237">
        <ele>411</ele>
        <time>2017-03-19T07:37:20.390Z</time>
      </trkpt>
      <trkpt lat="43.6464" lon="6.79219">
        <ele>384</ele>
        <time>2017-03-19T07:37:38.691Z</time>
      </trkpt>
      <trkpt lat="43.6458" lon="6.79255">
        <ele>380</ele>
        <time>2017-03-19T07:37:50.879Z</time>
      </trkpt>
      <trkpt lat="43.64545" lon="6.79265">
        <ele>363</ele>
        <time>2017-03-19T07:37:57.845Z</time>
      </trkpt>
      <trkpt lat="43.64521" lon="6.79307">
        <ele>365</ele>
        <time>2017-03-19T07:38:53.339Z</time>
      </trkpt>
      <trkpt lat="43.64494" lon="6.79386">
        <ele>382</ele>
        <time>2017-03-19T07:42:11.035Z</time>
      </trkpt>
      <trkpt lat="43.64439" lon="6.7941">
        <ele>361</ele>
        <time>2017-03-19T07:42:22.275Z</time>
      </trkpt>
      <trkpt lat="43.64371" lon="6.79425">
        <ele>329</ele>
        <time>2017-03-19T07:42:35.696Z</time>
      </trkpt>
      <trkpt lat="43.64319" lon="6.79478">
        <ele>319</ele>
        <time>2017-03-19T07:42:48.289Z</time>
      </trkpt>
      <trkpt lat="43.64305" lon="6.79548">
        <ele>334</ele>
        <time>2017-03-19T07:45:32.627Z</time>
      </trkpt>
      <trkpt lat="43.6424" lon="6.79576">
        <ele>316</ele>
        <time>2017-03-19T07:45:45.897Z</time>
      </trkpt>
      <trkpt lat="43.64224" lon="6.79615">
        <ele>326</ele>
        <time>2017-03-19T07:47:27.345Z</time>
      </trkpt>
      <trkpt lat="43.64101" lon="6.79621">
        <ele>298</ele>
        <time>2017-03-19T07:47:51.331Z</time>
      </trkpt>
      <trkpt lat="43.64006" lon="6.79667">
        <ele>287</ele>
        <time>2017-03-19T07:48:10.950Z</time>
      </trkpt>
      <trkpt lat="43.63961" lon="6.7969">
        <ele>280</ele>
        <time>2017-03-19T07:48:20.301Z</time>
      </trkpt>
      <trkpt lat="43.63932" lon="6.79733">
        <ele>288</ele>
        <time>2017-03-19T07:50:33.314Z</time>
      </trkpt>
      <trkpt lat="43.6389" lon="6.79766">
        <ele>294</ele>
        <time>2017-03-19T07:52:46.580Z</time>
      </trkpt>
      <trkpt lat="43.63874" lon="6.79799">
        <ele>306</ele>
        <time>2017-03-19T07:54:16.470Z</time>
      </trkpt>
      <trkpt lat="43.63831" lon="6.79803">
        <ele>301</ele>
        <time>2017-03-19T07:54:24.869Z</time>
      </trkpt>
      <trkpt lat="43.63804" lon="6.79827">
        <ele>309</ele>
        <time>2017-03-19T07:56:05.259Z</time>
      </trkpt>
      <trkpt lat="43.63792" lon="6.79859">
        <ele>322</ele>
        <time>2017-03-19T07:57:26.822Z</time>
      </trkpt>
      <trkpt lat="43.63801" lon="6.79872">
        <ele>330</ele>
        <time>2017-03-19T07:58:07.535Z</time>
      </trkpt>
      <trkpt lat="43.63822" lon="6.79855">
        <ele>324</ele>
        <time>2017-03-19T07:58:12.278Z</time>
      </trkpt>
      <trkpt lat="43.6382" lon="6.79867">
        <ele>330</ele>
        <time>2017-03-19T07:58:40.145Z</time>
      </trkpt>
      <trkpt lat="43.63825" lon="6.79893">
        <ele>342</ele>
        <time>2017-03-19T07:59:41.026Z</time>
      </trkpt>
      <trkpt lat="43.6375" lon="6.79964">
        <ele>360</ele>
        <time>2017-03-19T08:04:25.313Z</time>
      </trkpt>
      <trkpt lat="43.63759" lon="6.79977">
        <ele>365</ele>
        <time>2017-03-19T08:05:06.026Z</time>
      </trkpt>
      <trkpt lat="43.6375" lon="6.79985">
        <ele>367</ele>
        <time>2017-03-19T08:05:39.490Z</time>
      </trkpt>
      <trkpt lat="43.63758" lon="6.79995">
        <ele>371</ele>
        <time>2017-03-19T08:06:13.223Z</time>
      </trkpt>
      <trkpt lat="43.63738" lon="6.80008">
        <ele>375</ele>
        <time>2017-03-19T08:07:22.338Z</time>
      </trkpt>
      <trkpt lat="43.63746" lon="6.80019">
        <ele>376</ele>
        <time>2017-03-19T08:07:43.753Z</time>
      </trkpt>
      <trkpt lat="43.6376" lon="6.80028">
        <ele>379</ele>
        <time>2017-03-19T08:08:32.037Z</time>
      </trkpt>
      <trkpt lat="43.63757" lon="6.80042">
        <ele>382</ele>
        <time>2017-03-19T08:09:05.080Z</time>
      </trkpt>
      <trkpt lat="43.63782" lon="6.80068">
        <ele>389</ele>
        <time>2017-03-19T08:10:42.924Z</time>
      </trkpt>
      <trkpt lat="43.63732" lon="6.80074">
        <ele>388</ele>
        <time>2017-03-19T08:10:56.801Z</time>
      </trkpt>
      <trkpt lat="43.63696" lon="6.8006">
        <ele>385</ele>
        <time>2017-03-19T08:11:04.090Z</time>
      </trkpt>
      <trkpt lat="43.63687" lon="6.80044">
        <ele>383</ele>
        <time>2017-03-19T08:11:06.948Z</time>
      </trkpt>
      <trkpt lat="43.6358" lon="6.79964">
        <ele>379</ele>
        <time>2017-03-19T08:11:36.147Z</time>
      </trkpt>
      <trkpt lat="43.63482" lon="6.79916">
        <ele>369</ele>
        <time>2017-03-19T08:11:56.411Z</time>
      </trkpt>
      <trkpt lat="43.6343" lon="6.79974">
        <ele>365</ele>
        <time>2017-03-19T08:12:08.993Z</time>
      </trkpt>
      <trkpt lat="43.634" lon="6.79994">
        <ele>359</ele>
        <time>2017-03-19T08:12:15.485Z</time>
      </trkpt>
      <trkpt lat="43.63389" lon="6.80022">
        <ele>362</ele>
        <time>2017-03-19T08:13:24.278Z</time>
      </trkpt>
      <trkpt lat="43.6335" lon="6.80052">
        <ele>357</ele>
        <time>2017-03-19T08:13:32.977Z</time>
      </trkpt>
      <trkpt lat="43.63302" lon="6.80061">
        <ele>342</ele>
        <time>2017-03-19T08:13:42.418Z</time>
      </trkpt>
      <trkpt lat="43.63275" lon="6.80071">
        <ele>335</ele>
        <time>2017-03-19T08:13:47.866Z</time>
      </trkpt>
      <trkpt lat="43.63246" lon="6.80081">
        <ele>326</ele>
        <time>2017-03-19T08:13:53.691Z</time>
      </trkpt>
      <trkpt lat="43.63228" lon="6.8011">
        <ele>323</ele>
        <time>2017-03-19T08:13:59.080Z</time>
      </trkpt>
      <trkpt lat="43.63208" lon="6.80146">
        <ele>321</ele>
        <time>2017-03-19T08:14:05.213Z</time>
      </trkpt>
      <trkpt lat="43.63196" lon="6.80149">
        <ele>316</ele>
        <time>2017-03-19T08:14:07.590Z</time>
      </trkpt>
      <trkpt lat="43.63193" lon="6.80132">
        <ele>311</ele>
        <time>2017-03-19T08:14:10.058Z</time>
      </trkpt>
      <trkpt lat="43.6314" lon="6.80194">
        <ele>298</ele>
        <time>2017-03-19T08:14:23.593Z</time>
      </trkpt>
      <trkpt lat="43.63123" lon="6.80201">
        <ele>291</ele>
        <time>2017-03-19T08:14:27.050Z</time>
      </trkpt>
      <trkpt lat="43.63118" lon="6.80171">
        <ele>283</ele>
        <time>2017-03-19T08:14:31.392Z</time>
      </trkpt>
      <trkpt lat="43.63107" lon="6.80174">
        <ele>278</ele>
        <time>2017-03-19T08:14:33.578Z</time>
      </trkpt>
      <trkpt lat="43.63104" lon="6.80165">
        <ele>275</ele>
        <time>2017-03-19T08:14:34.975Z</time>
      </trkpt>
      <trkpt lat="43.63086" lon="6.80177">
        <ele>268</ele>
        <time>2017-03-19T08:14:38.870Z</time>
      </trkpt>
      <trkpt lat="43.6308" lon="6.80167">
        <ele>263</ele>
        <time>2017-03-19T08:14:40.703Z</time>
      </trkpt>
      <trkpt lat="43.63072" lon="6.8018">
        <ele>262</ele>
        <time>2017-03-19T08:14:43.110Z</time>
      </trkpt>
      <trkpt lat="43.63067" lon="6.80166">
        <ele>257</ele>
        <time>2017-03-19T08:14:45.312Z</time>
      </trkpt>
      <trkpt lat="43.63041" lon="6.80166">
        <ele>245</ele>
        <time>2017-03-19T08:14:50.379Z</time>
      </trkpt>
      <trkpt lat="43.63068" lon="6.80099">
        <ele>242</ele>
        <time>2017-03-19T08:15:01.337Z</time>
      </trkpt>
      <trkpt lat="43.63063" lon="6.80087">
        <ele>237</ele>
        <time>2017-03-19T08:15:03.290Z</time>
      </trkpt>
      <trkpt lat="43.63085" lon="6.80049">
        <ele>233</ele>
        <time>2017-03-19T08:15:10.154Z</time>
      </trkpt>
      <trkpt lat="43.63067" lon="6.80054">
        <ele>229</ele>
        <time>2017-03-19T08:15:13.733Z</time>
      </trkpt>
      <trkpt lat="43.63077" lon="6.80032">
        <ele>225</ele>
        <time>2017-03-19T08:15:17.397Z</time>
      </trkpt>
      <trkpt lat="43.63065" lon="6.80027">
        <ele>220</ele>
        <time>2017-03-19T08:15:19.840Z</time>
      </trkpt>
      <trkpt lat="43.63049" lon="6.80049">
        <ele>222</ele>
        <time>2017-03-19T08:16:02.672Z</time>
      </trkpt>
      <trkpt lat="43.63037" lon="6.80044">
        <ele>217</ele>
        <time>2017-03-19T08:16:05.115Z</time>
      </trkpt>
      <trkpt lat="43.63006" lon="6.80092">
        <ele>217</ele>
        <time>2017-03-19T08:16:42.863Z</time>
      </trkpt>
      <trkpt lat="43.62993" lon="6.80094">
        <ele>213</ele>
        <time>2017-03-19T08:16:45.412Z</time>
      </trkpt>
      <trkpt lat="43.62985" lon="6.80118">
        <ele>215</ele>
        <time>2017-03-19T08:17:27.614Z</time>
      </trkpt>
      <trkpt lat="43.62961" lon="6.80119">
        <ele>209</ele>
        <time>2017-03-19T08:17:32.293Z</time>
      </trkpt>
      <trkpt lat="43.62944" lon="6.80128">
        <ele>206</ele>
        <time>2017-03-19T08:17:35.841Z</time>
      </trkpt>
      <trkpt lat="43.62938" lon="6.80151">
        <ele>205</ele>
        <time>2017-03-19T08:17:39.264Z</time>
      </trkpt>
      <trkpt lat="43.62925" lon="6.80156">
        <ele>202</ele>
        <time>2017-03-19T08:17:41.894Z</time>
      </trkpt>
      <trkpt lat="43.62932" lon="6.80174">
        <ele>204</ele>
        <time>2017-03-19T08:18:28.143Z</time>
      </trkpt>
      <trkpt lat="43.6293" lon="6.80187">
        <ele>203</ele>
        <time>2017-03-19T08:18:30.018Z</time>
      </trkpt>
      <trkpt lat="43.62925" lon="6.80196">
        <ele>201</ele>
        <time>2017-03-19T08:18:31.618Z</time>
      </trkpt>
      <trkpt lat="43.62921" lon="6.80203">
        <ele>200</ele>
        <time>2017-03-19T08:18:32.876Z</time>
      </trkpt>
      <trkpt lat="43.62897" lon="6.80202">
        <ele>191</ele>
        <time>2017-03-19T08:18:37.556Z</time>
      </trkpt>
      <trkpt lat="43.62884" lon="6.8021">
        <ele>186</ele>
        <time>2017-03-19T08:18:40.329Z</time>
      </trkpt>
      <trkpt lat="43.62868" lon="6.80206">
        <ele>181</ele>
        <time>2017-03-19T08:18:43.498Z</time>
      </trkpt>
      <trkpt lat="43.62854" lon="6.80183">
        <ele>177</ele>
        <time>2017-03-19T08:18:47.738Z</time>
      </trkpt>
      <trkpt lat="43.62838" lon="6.80157">
        <ele>171</ele>
        <time>2017-03-19T08:18:52.552Z</time>
      </trkpt>
      <trkpt lat="43.62825" lon="6.80153">
        <ele>166</ele>
        <time>2017-03-19T08:18:55.148Z</time>
      </trkpt>
      <trkpt lat="43.62843" lon="6.80161">
        <ele>173</ele>
        <time>2017-03-19T08:19:54.274Z</time>
      </trkpt>
      <trkpt lat="43.62873" lon="6.80208">
        <ele>182</ele>
        <time>2017-03-19T08:22:16.109Z</time>
      </trkpt>
      <trkpt lat="43.62913" lon="6.80197">
        <ele>197</ele>
        <time>2017-03-19T08:24:23.643Z</time>
      </trkpt>
      <trkpt lat="43.62922" lon="6.802">
        <ele>200</ele>
        <time>2017-03-19T08:24:52.593Z</time>
      </trkpt>
      <trkpt lat="43.62931" lon="6.80171">
        <ele>204</ele>
        <time>2017-03-19T08:26:04.010Z</time>
      </trkpt>
      <trkpt lat="43.62925" lon="6.80151">
        <ele>202</ele>
        <time>2017-03-19T08:26:07.064Z</time>
      </trkpt>
      <trkpt lat="43.62943" lon="6.80145">
        <ele>206</ele>
        <time>2017-03-19T08:27:04.965Z</time>
      </trkpt>
      <trkpt lat="43.62948" lon="6.80124">
        <ele>207</ele>
        <time>2017-03-19T08:27:29.671Z</time>
      </trkpt>
      <trkpt lat="43.62961" lon="6.80112">
        <ele>209</ele>
        <time>2017-03-19T08:28:14.952Z</time>
      </trkpt>
      <trkpt lat="43.62968" lon="6.80049">
        <ele>201</ele>
        <time>2017-03-19T08:28:23.944Z</time>
      </trkpt>
      <trkpt lat="43.63037" lon="6.79989">
        <ele>202</ele>
        <time>2017-03-19T08:29:38.406Z</time>
      </trkpt>
      <trkpt lat="43.63055" lon="6.79957">
        <ele>195</ele>
        <time>2017-03-19T08:29:44.122Z</time>
      </trkpt>
      <trkpt lat="43.63089" lon="6.79942">
        <ele>196</ele>
        <time>2017-03-19T08:30:23.047Z</time>
      </trkpt>
      <trkpt lat="43.63135" lon="6.7993">
        <ele>207</ele>
        <time>2017-03-19T08:32:49.431Z</time>
      </trkpt>
      <trkpt lat="43.63174" lon="6.79905">
        <ele>207</ele>
        <time>2017-03-19T08:33:24.285Z</time>
      </trkpt>
      <trkpt lat="43.63234" lon="6.79876">
        <ele>216</ele>
        <time>2017-03-19T08:36:43.055Z</time>
      </trkpt>
      <trkpt lat="43.63279" lon="6.79765">
        <ele>199</ele>
        <time>2017-03-19T08:37:01.001Z</time>
      </trkpt>
      <trkpt lat="43.63313" lon="6.7973">
        <ele>206</ele>
        <time>2017-03-19T08:39:13.584Z</time>
      </trkpt>
      <trkpt lat="43.63356" lon="6.79718">
        <ele>224</ele>
        <time>2017-03-19T08:41:30.761Z</time>
      </trkpt>
      <trkpt lat="43.63373" lon="6.79701">
        <ele>227</ele>
        <time>2017-03-19T08:42:36.382Z</time>
      </trkpt>
      <trkpt lat="43.63398" lon="6.79668">
        <ele>227</ele>
        <time>2017-03-19T08:43:04.412Z</time>
      </trkpt>
      <trkpt lat="43.63413" lon="6.79665">
        <ele>233</ele>
        <time>2017-03-19T08:43:51.806Z</time>
      </trkpt>
      <trkpt lat="43.63407" lon="6.79683">
        <ele>237</ele>
        <time>2017-03-19T08:44:36.657Z</time>
      </trkpt>
      <trkpt lat="43.63462" lon="6.79645">
        <ele>248</ele>
        <time>2017-03-19T08:47:48.946Z</time>
      </trkpt>
      <trkpt lat="43.6354" lon="6.79618">
        <ele>251</ele>
        <time>2017-03-19T08:49:27.978Z</time>
      </trkpt>
      <trkpt lat="43.63587" lon="6.79657">
        <ele>272</ele>
        <time>2017-03-19T08:52:19.413Z</time>
      </trkpt>
      <trkpt lat="43.63667" lon="6.79702">
        <ele>272</ele>
        <time>2017-03-19T08:53:29.438Z</time>
      </trkpt>
      <trkpt lat="43.63722" lon="6.79766">
        <ele>284</ele>
        <time>2017-03-19T08:57:14.286Z</time>
      </trkpt>
      <trkpt lat="43.63759" lon="6.79778">
        <ele>281</ele>
        <time>2017-03-19T08:57:21.693Z</time>
      </trkpt>
      <trkpt lat="43.63789" lon="6.7976">
        <ele>276</ele>
        <time>2017-03-19T08:57:28.067Z</time>
      </trkpt>
      <trkpt lat="43.63812" lon="6.79745">
        <ele>272</ele>
        <time>2017-03-19T08:57:33.024Z</time>
      </trkpt>
      <trkpt lat="43.63851" lon="6.79746">
        <ele>277</ele>
        <time>2017-03-19T08:59:26.394Z</time>
      </trkpt>
      <trkpt lat="43.63869" lon="6.79766">
        <ele>290</ele>
        <time>2017-03-19T09:00:38.620Z</time>
      </trkpt>
      <trkpt lat="43.63881" lon="6.79763">
        <ele>291</ele>
        <time>2017-03-19T09:01:00.494Z</time>
      </trkpt>
      <trkpt lat="43.63899" lon="6.79753">
        <ele>289</ele>
        <time>2017-03-19T09:01:04.275Z</time>
      </trkpt>
      <trkpt lat="43.63937" lon="6.79719">
        <ele>284</ele>
        <time>2017-03-19T09:01:13.098Z</time>
      </trkpt>
      <trkpt lat="43.63988" lon="6.79667">
        <ele>280</ele>
        <time>2017-03-19T09:01:24.727Z</time>
      </trkpt>
      <trkpt lat="43.6401" lon="6.79658">
        <ele>284</ele>
        <time>2017-03-19T09:02:36.473Z</time>
      </trkpt>
      <trkpt lat="43.64075" lon="6.7955">
        <ele>258</ele>
        <time>2017-03-19T09:02:56.285Z</time>
      </trkpt>
      <trkpt lat="43.64074" lon="6.79531">
        <ele>248</ele>
        <time>2017-03-19T09:02:58.971Z</time>
      </trkpt>
      <trkpt lat="43.64099" lon="6.79522">
        <ele>251</ele>
        <time>2017-03-19T09:04:03.589Z</time>
      </trkpt>
      <trkpt lat="43.64116" lon="6.795">
        <ele>244</ele>
        <time>2017-03-19T09:04:08.128Z</time>
      </trkpt>
      <trkpt lat="43.64131" lon="6.79503">
        <ele>249</ele>
        <time>2017-03-19T09:04:55.522Z</time>
      </trkpt>
      <trkpt lat="43.64144" lon="6.7949">
        <ele>247</ele>
        <time>2017-03-19T09:04:58.650Z</time>
      </trkpt>
      <trkpt lat="43.64141" lon="6.79476">
        <ele>240</ele>
        <time>2017-03-19T09:05:00.709Z</time>
      </trkpt>
      <trkpt lat="43.64154" lon="6.79452">
        <ele>233</ele>
        <time>2017-03-19T09:05:04.937Z</time>
      </trkpt>
      <trkpt lat="43.64159" lon="6.79409">
        <ele>216</ele>
        <time>2017-03-19T09:05:11.079Z</time>
      </trkpt>
      <trkpt lat="43.64178" lon="6.79395">
        <ele>217</ele>
        <time>2017-03-19T09:05:40.907Z</time>
      </trkpt>
      <trkpt lat="43.6416" lon="6.79375">
        <ele>203</ele>
        <time>2017-03-19T09:05:45.409Z</time>
      </trkpt>
      <trkpt lat="43.6417" lon="6.7937">
        <ele>203</ele>
        <time>2017-03-19T09:05:54.030Z</time>
      </trkpt>
      <trkpt lat="43.64183" lon="6.79379">
        <ele>212</ele>
        <time>2017-03-19T09:06:39.498Z</time>
      </trkpt>
      <trkpt lat="43.64177" lon="6.79355">
        <ele>200</ele>
        <time>2017-03-19T09:06:43.079Z</time>
      </trkpt>
      <trkpt lat="43.64193" lon="6.79369">
        <ele>212</ele>
        <time>2017-03-19T09:07:42.298Z</time>
      </trkpt>
      <trkpt lat="43.64213" lon="6.79323">
        <ele>202</ele>
        <time>2017-03-19T09:07:49.866Z</time>
      </trkpt>
      <trkpt lat="43.64232" lon="6.79294">
        <ele>200</ele>
        <time>2017-03-19T09:07:55.384Z</time>
      </trkpt>
      <trkpt lat="43.64252" lon="6.79219">
        <ele>187</ele>
        <time>2017-03-19T09:08:06.657Z</time>
      </trkpt>
      <trkpt lat="43.64287" lon="6.79153">
        <ele>181</ele>
        <time>2017-03-19T09:08:18.197Z</time>
      </trkpt>
      <trkpt lat="43.64311" lon="6.79139">
        <ele>183</ele>
        <time>2017-03-19T09:09:02.981Z</time>
      </trkpt>
      <trkpt lat="43.64356" lon="6.79082">
        <ele>183</ele>
        <time>2017-03-19T09:09:52.470Z</time>
      </trkpt>
      <trkpt lat="43.64344" lon="6.79066">
        <ele>179</ele>
        <time>2017-03-19T09:09:55.720Z</time>
      </trkpt>
      <trkpt lat="43.6432" lon="6.78999">
        <ele>179</ele>
        <time>2017-03-19T09:10:39.579Z</time>
      </trkpt>
      <trkpt lat="43.64338" lon="6.78986">
        <ele>176</ele>
        <time>2017-03-19T09:10:43.537Z</time>
      </trkpt>
      <trkpt lat="43.64339" lon="6.78944">
        <ele>179</ele>
        <time>2017-03-19T09:11:46.817Z</time>
      </trkpt>
      <trkpt lat="43.64419" lon="6.78924">
        <ele>178</ele>
        <time>2017-03-19T09:12:11.506Z</time>
      </trkpt>
      <trkpt lat="43.64487" lon="6.78848">
        <ele>175</ele>
        <time>2017-03-19T09:12:32.195Z</time>
      </trkpt>
      <trkpt lat="43.64569" lon="6.78735">
        <ele>178</ele>
        <time>2017-03-19T09:14:35.286Z</time>
      </trkpt>
      <trkpt lat="43.64686" lon="6.78679">
        <ele>178</ele>
        <time>2017-03-19T09:16:15.666Z</time>
      </trkpt>
      <trkpt lat="43.64801" lon="6.78463">
        <ele>192</ele>
        <time>2017-03-19T09:21:37.431Z</time>
      </trkpt>
      <trkpt lat="43.64859" lon="6.78442">
        <ele>186</ele>
        <time>2017-03-19T09:21:49.116Z</time>
      </trkpt>
      <trkpt lat="43.64924" lon="6.78462">
        <ele>185</ele>
        <time>2017-03-19T09:22:08.655Z</time>
      </trkpt>
      <trkpt lat="43.64926" lon="6.78477">
        <ele>183</ele>
        <time>2017-03-19T09:22:10.806Z</time>
      </trkpt>
      <trkpt lat="43.6501" lon="6.78534">
        <ele>183</ele>
        <time>2017-03-19T09:23:26.670Z</time>
      </trkpt>
      <trkpt lat="43.65085" lon="6.7855">
        <ele>184</ele>
        <time>2017-03-19T09:24:36.638Z</time>
      </trkpt>
      <trkpt lat="43.65116" lon="6.78522">
        <ele>188</ele>
        <time>2017-03-19T09:26:01.324Z</time>
      </trkpt>
      <trkpt lat="43.65131" lon="6.78525">
        <ele>189</ele>
        <time>2017-03-19T09:26:25.321Z</time>
      </trkpt>
      <trkpt lat="43.6522" lon="6.78435">
        <ele>196</ele>
        <time>2017-03-19T09:29:16.788Z</time>
      </trkpt>
      <trkpt lat="43.65257" lon="6.78409">
        <ele>187</ele>
        <time>2017-03-19T09:29:24.877Z</time>
      </trkpt>
      <trkpt lat="43.6527" lon="6.78382">
        <ele>191</ele>
        <time>2017-03-19T09:30:38.255Z</time>
      </trkpt>
      <trkpt lat="43.65312" lon="6.78359">
        <ele>185</ele>
        <time>2017-03-19T09:30:47.059Z</time>
      </trkpt>
      <trkpt lat="43.65398" lon="6.78223">
        <ele>193</ele>
        <time>2017-03-19T09:34:07.006Z</time>
      </trkpt>
      <trkpt lat="43.65486" lon="6.7801">
        <ele>196</ele>
        <time>2017-03-19T09:36:57.236Z</time>
      </trkpt>
      <trkpt lat="43.6551" lon="6.77921">
        <ele>195</ele>
        <time>2017-03-19T09:37:17.516Z</time>
      </trkpt>
      <trkpt lat="43.65503" lon="6.77876">
        <ele>201</ele>
        <time>2017-03-19T09:39:01.651Z</time>
      </trkpt>
      <trkpt lat="43.65525" lon="6.77797">
        <ele>208</ele>
        <time>2017-03-19T09:41:31.667Z</time>
      </trkpt>
      <trkpt lat="43.65569" lon="6.77744">
        <ele>205</ele>
        <time>2017-03-19T09:41:43.451Z</time>
      </trkpt>
      <trkpt lat="43.65611" lon="6.7774">
        <ele>199</ele>
        <time>2017-03-19T09:41:51.656Z</time>
      </trkpt>
      <trkpt lat="43.65657" lon="6.77707">
        <ele>207</ele>
        <time>2017-03-19T09:44:33.719Z</time>
      </trkpt>
      <trkpt lat="43.65728" lon="6.77714">
        <ele>202</ele>
        <time>2017-03-19T09:44:47.591Z</time>
      </trkpt>
      <trkpt lat="43.65745" lon="6.77733">
        <ele>196</ele>
        <time>2017-03-19T09:44:51.852Z</time>
      </trkpt>
      <trkpt lat="43.65763" lon="6.77771">
        <ele>194</ele>
        <time>2017-03-19T09:44:57.989Z</time>
      </trkpt>
      <trkpt lat="43.65756" lon="6.77733">
        <ele>196</ele>
        <time>2017-03-19T09:45:44.443Z</time>
      </trkpt>
      <trkpt lat="43.65801" lon="6.77711">
        <ele>198</ele>
        <time>2017-03-19T09:46:47.242Z</time>
      </trkpt>
      <trkpt lat="43.65854" lon="6.77706">
        <ele>197</ele>
        <time>2017-03-19T09:47:02.123Z</time>
      </trkpt>
      <trkpt lat="43.65983" lon="6.77639">
        <ele>202</ele>
        <time>2017-03-19T09:49:49.454Z</time>
      </trkpt>
      <trkpt lat="43.65995" lon="6.77682">
        <ele>202</ele>
        <time>2017-03-19T09:50:16.485Z</time>
      </trkpt>
      <trkpt lat="43.65962" lon="6.77698">
        <ele>201</ele>
        <time>2017-03-19T09:50:25.261Z</time>
      </trkpt>
      <trkpt lat="43.65939" lon="6.77746">
        <ele>201</ele>
        <time>2017-03-19T09:50:59.028Z</time>
      </trkpt>
      <trkpt lat="43.65932" lon="6.77782">
        <ele>207</ele>
        <time>2017-03-19T09:52:23.360Z</time>
      </trkpt>
      <trkpt lat="43.65908" lon="6.77853">
        <ele>222</ele>
        <time>2017-03-19T09:55:20.648Z</time>
      </trkpt>
      <trkpt lat="43.65852" lon="6.77895">
        <ele>226</ele>
        <time>2017-03-19T09:56:59.219Z</time>
      </trkpt>
      <trkpt lat="43.65873" lon="6.77908">
        <ele>233</ele>
        <time>2017-03-19T09:58:11.171Z</time>
      </trkpt>
      <trkpt lat="43.65867" lon="6.77931">
        <ele>240</ele>
        <time>2017-03-19T09:59:06.483Z</time>
      </trkpt>
      <trkpt lat="43.6583" lon="6.77924">
        <ele>230</ele>
        <time>2017-03-19T09:59:13.761Z</time>
      </trkpt>
      <trkpt lat="43.65786" lon="6.78007">
        <ele>250</ele>
        <time>2017-03-19T10:03:06.545Z</time>
      </trkpt>
      <trkpt lat="43.65741" lon="6.77982">
        <ele>239</ele>
        <time>2017-03-19T10:03:15.997Z</time>
      </trkpt>
      <trkpt lat="43.65721" lon="6.78006">
        <ele>241</ele>
        <time>2017-03-19T10:04:01.077Z</time>
      </trkpt>
      <trkpt lat="43.6577" lon="6.78084">
        <ele>261</ele>
        <time>2017-03-19T10:07:54.778Z</time>
      </trkpt>
      <trkpt lat="43.65817" lon="6.78099">
        <ele>273</ele>
        <time>2017-03-19T10:10:25.613Z</time>
      </trkpt>
      <trkpt lat="43.65772" lon="6.7815">
        <ele>273</ele>
        <time>2017-03-19T10:11:12.790Z</time>
      </trkpt>
      <trkpt lat="43.6582" lon="6.78144">
        <ele>284</ele>
        <time>2017-03-19T10:13:43.499Z</time>
      </trkpt>
      <trkpt lat="43.65767" lon="6.78236">
        <ele>291</ele>
        <time>2017-03-19T10:16:16.452Z</time>
      </trkpt>
      <trkpt lat="43.65765" lon="6.78303">
        <ele>308</ele>
        <time>2017-03-19T10:18:48.156Z</time>
      </trkpt>
      <trkpt lat="43.65621" lon="6.78609">
        <ele>344</ele>
        <time>2017-03-19T10:32:33.992Z</time>
      </trkpt>
      <trkpt lat="43.65484" lon="6.78784">
        <ele>380</ele>
        <time>2017-03-19T10:42:17.325Z</time>
      </trkpt>
      <trkpt lat="43.65494" lon="6.78795">
        <ele>385</ele>
        <time>2017-03-19T10:42:57.289Z</time>
      </trkpt>
      <trkpt lat="43.65407" lon="6.78855">
        <ele>399</ele>
        <time>2017-03-19T10:48:01.324Z</time>
      </trkpt>
      <trkpt lat="43.65294" lon="6.7899">
        <ele>431</ele>
        <time>2017-03-19T10:55:48.386Z</time>
      </trkpt>
      <trkpt lat="43.652" lon="6.79051">
        <ele>439</ele>
        <time>2017-03-19T10:58:47.286Z</time>
      </trkpt>
      <trkpt lat="43.6515" lon="6.79072">
        <ele>447</ele>
        <time>2017-03-19T11:01:30.696Z</time>
      </trkpt>
      <trkpt lat="43.65117" lon="6.79099">
        <ele>455</ele>
        <time>2017-03-19T11:03:30.614Z</time>
      </trkpt>
      <trkpt lat="43.65051" lon="6.79111">
        <ele>454</ele>
        <time>2017-03-19T11:03:50.144Z</time>
      </trkpt>
      <trkpt lat="43.65026" lon="6.79108">
        <ele>450</ele>
        <time>2017-03-19T11:03:55.034Z</time>
      </trkpt>
      <trkpt lat="43.65003" lon="6.79137">
        <ele>462</ele>
        <time>2017-03-19T11:05:32.389Z</time>
      </trkpt>
      <trkpt lat="43.64961" lon="6.79214">
        <ele>470</ele>
        <time>2017-03-19T11:08:23.998Z</time>
      </trkpt>
      <trkpt lat="43.64982" lon="6.79254">
        <ele>481</ele>
        <time>2017-03-19T11:10:15.816Z</time>
      </trkpt>
      <trkpt lat="43.64944" lon="6.79243">
        <ele>474</ele>
        <time>2017-03-19T11:10:23.383Z</time>
      </trkpt>
      <trkpt lat="43.64924" lon="6.79305">
        <ele>479</ele>
        <time>2017-03-19T11:12:08.779Z</time>
      </trkpt>
      <trkpt lat="43.64851" lon="6.79376">
        <ele>483</ele>
        <time>2017-03-19T11:14:11.157Z</time>
      </trkpt>
    </trkseg>
  </trk>
</gpx>